sensor_id;sensor_type;location;lat;lon;timestamp;P1;durP1;ratioP1;P2;durP2;ratioP2
55368;SDS011;41247;49.736;8.752;2023-01-04T00:00:46;5.93;;;3.00;;
55368;SDS011;41247;49.736;8.752;2023-01-04T00:04:27;13.85;;;4.70;;
55368;SDS011;41247;49.736;8.752;2023-01-04T00:08:07;7.90;;;4.38;;
55368;SDS011;41247;49.736;8.752;2023-01-04T00:11:48;15.00;;;5.97;;
55368;SDS011;41247;49.736;8.752;2023-01-04T00:15:28;14.55;;;6.57;;
55368;SDS011;41247;49.736;8.752;2023-01-04T00:19:10;10.82;;;5.80;;
55368;SDS011;41247;49.736;8.752;2023-01-04T00:22:51;13.52;;;6.32;;
55368;SDS011;41247;49.736;8.752;2023-01-04T00:26:32;15.85;;;6.05;;
55368;SDS011;41247;49.736;8.752;2023-01-04T00:30:13;12.00;;;6.70;;
55368;SDS011;41247;49.736;8.752;2023-01-04T00:33:54;10.68;;;6.05;;
55368;SDS011;41247;49.736;8.752;2023-01-04T00:37:37;14.97;;;7.00;;
55368;SDS011;41247;49.736;8.752;2023-01-04T00:41:17;15.23;;;7.80;;
55368;SDS011;41247;49.736;8.752;2023-01-04T00:44:58;10.93;;;6.82;;
55368;SDS011;41247;49.736;8.752;2023-01-04T00:48:38;17.55;;;8.73;;
55368;SDS011;41247;49.736;8.752;2023-01-04T00:52:19;21.10;;;11.23;;
55368;SDS011;41247;49.736;8.752;2023-01-04T00:55:59;20.67;;;11.82;;
55368;SDS011;41247;49.736;8.752;2023-01-04T00:59:40;24.35;;;14.82;;
55368;SDS011;41247;49.736;8.752;2023-01-04T01:03:21;31.40;;;16.08;;
55368;SDS011;41247;49.736;8.752;2023-01-04T01:07:01;33.47;;;16.98;;
55368;SDS011;41247;49.736;8.752;2023-01-04T01:10:42;27.95;;;15.57;;
55368;SDS011;41247;49.736;8.752;2023-01-04T01:14:23;26.50;;;15.63;;
55368;SDS011;41247;49.736;8.752;2023-01-04T01:18:04;25.08;;;14.20;;
55368;SDS011;41247;49.736;8.752;2023-01-04T01:21:46;25.00;;;14.60;;
55368;SDS011;41247;49.736;8.752;2023-01-04T01:25:26;23.45;;;13.82;;
55368;SDS011;41247;49.736;8.752;2023-01-04T01:29:07;26.67;;;13.82;;
55368;SDS011;41247;49.736;8.752;2023-01-04T01:32:48;22.00;;;11.93;;
55368;SDS011;41247;49.736;8.752;2023-01-04T01:36:29;18.40;;;10.57;;
55368;SDS011;41247;49.736;8.752;2023-01-04T01:40:10;13.95;;;7.95;;
55368;SDS011;41247;49.736;8.752;2023-01-04T01:43:55;14.57;;;7.80;;
55368;SDS011;41247;49.736;8.752;2023-01-04T01:47:43;15.18;;;7.80;;
55368;SDS011;41247;49.736;8.752;2023-01-04T01:51:26;13.67;;;7.37;;
55368;SDS011;41247;49.736;8.752;2023-01-04T01:55:08;11.50;;;6.82;;
55368;SDS011;41247;49.736;8.752;2023-01-04T01:58:51;11.65;;;5.50;;
55368;SDS011;41247;49.736;8.752;2023-01-04T02:02:35;8.32;;;4.80;;
55368;SDS011;41247;49.736;8.752;2023-01-04T02:06:24;10.88;;;5.40;;
55368;SDS011;41247;49.736;8.752;2023-01-04T02:10:10;13.23;;;4.30;;
55368;SDS011;41247;49.736;8.752;2023-01-04T02:13:51;8.18;;;3.92;;
55368;SDS011;41247;49.736;8.752;2023-01-04T02:17:34;7.82;;;3.63;;
55368;SDS011;41247;49.736;8.752;2023-01-04T02:21:41;7.88;;;3.90;;
55368;SDS011;41247;49.736;8.752;2023-01-04T02:26:12;9.35;;;3.72;;
55368;SDS011;41247;49.736;8.752;2023-01-04T02:34:27;7.82;;;3.75;;
55368;SDS011;41247;49.736;8.752;2023-01-04T02:38:27;9.80;;;4.13;;
55368;SDS011;41247;49.736;8.752;2023-01-04T02:42:35;11.60;;;4.13;;
55368;SDS011;41247;49.736;8.752;2023-01-04T02:46:29;6.43;;;3.55;;
55368;SDS011;41247;49.736;8.752;2023-01-04T02:50:16;11.50;;;4.18;;
55368;SDS011;41247;49.736;8.752;2023-01-04T02:54:08;6.78;;;3.60;;
55368;SDS011;41247;49.736;8.752;2023-01-04T02:58:00;9.75;;;3.53;;
55368;SDS011;41247;49.736;8.752;2023-01-04T03:07:02;4.07;;;2.70;;
55368;SDS011;41247;49.736;8.752;2023-01-04T03:10:58;8.23;;;2.97;;
55368;SDS011;41247;49.736;8.752;2023-01-04T03:14:51;7.60;;;2.90;;
55368;SDS011;41247;49.736;8.752;2023-01-04T03:18:43;10.25;;;3.00;;
55368;SDS011;41247;49.736;8.752;2023-01-04T03:26:40;4.82;;;2.50;;
55368;SDS011;41247;49.736;8.752;2023-01-04T03:30:26;5.43;;;2.50;;
55368;SDS011;41247;49.736;8.752;2023-01-04T03:34:09;9.10;;;2.90;;
55368;SDS011;41247;49.736;8.752;2023-01-04T03:37:52;6.30;;;2.78;;
55368;SDS011;41247;49.736;8.752;2023-01-04T03:42:09;7.75;;;3.10;;
55368;SDS011;41247;49.736;8.752;2023-01-04T03:46:07;5.68;;;2.72;;
55368;SDS011;41247;49.736;8.752;2023-01-04T03:50:10;6.85;;;3.13;;
55368;SDS011;41247;49.736;8.752;2023-01-04T03:54:01;8.05;;;3.40;;
55368;SDS011;41247;49.736;8.752;2023-01-04T03:57:48;6.28;;;3.15;;
55368;SDS011;41247;49.736;8.752;2023-01-04T04:01:29;7.38;;;3.50;;
55368;SDS011;41247;49.736;8.752;2023-01-04T04:05:15;9.27;;;3.50;;
55368;SDS011;41247;49.736;8.752;2023-01-04T04:09:00;6.60;;;3.35;;
55368;SDS011;41247;49.736;8.752;2023-01-04T04:12:41;7.25;;;3.35;;
55368;SDS011;41247;49.736;8.752;2023-01-04T04:16:21;9.40;;;3.80;;
55368;SDS011;41247;49.736;8.752;2023-01-04T04:20:03;7.90;;;3.70;;
55368;SDS011;41247;49.736;8.752;2023-01-04T04:23:44;6.30;;;2.92;;
55368;SDS011;41247;49.736;8.752;2023-01-04T04:27:25;7.35;;;2.70;;
55368;SDS011;41247;49.736;8.752;2023-01-04T04:31:06;6.03;;;2.88;;
55368;SDS011;41247;49.736;8.752;2023-01-04T04:34:46;7.82;;;2.80;;
55368;SDS011;41247;49.736;8.752;2023-01-04T04:38:27;7.50;;;2.63;;
55368;SDS011;41247;49.736;8.752;2023-01-04T04:42:07;6.00;;;2.40;;
55368;SDS011;41247;49.736;8.752;2023-01-04T04:45:48;6.50;;;2.50;;
55368;SDS011;41247;49.736;8.752;2023-01-04T04:49:29;6.80;;;2.33;;
55368;SDS011;41247;49.736;8.752;2023-01-04T04:53:09;6.45;;;2.45;;
55368;SDS011;41247;49.736;8.752;2023-01-04T04:56:50;5.75;;;2.85;;
55368;SDS011;41247;49.736;8.752;2023-01-04T05:00:30;7.72;;;3.10;;
55368;SDS011;41247;49.736;8.752;2023-01-04T05:04:11;8.23;;;3.47;;
55368;SDS011;41247;49.736;8.752;2023-01-04T05:07:52;5.70;;;3.08;;
55368;SDS011;41247;49.736;8.752;2023-01-04T05:11:33;12.00;;;3.83;;
55368;SDS011;41247;49.736;8.752;2023-01-04T05:15:14;7.95;;;3.75;;
55368;SDS011;41247;49.736;8.752;2023-01-04T05:18:55;8.63;;;3.65;;
55368;SDS011;41247;49.736;8.752;2023-01-04T05:22:35;12.10;;;4.68;;
55368;SDS011;41247;49.736;8.752;2023-01-04T05:26:16;11.23;;;4.72;;
55368;SDS011;41247;49.736;8.752;2023-01-04T05:29:57;10.23;;;5.07;;
55368;SDS011;41247;49.736;8.752;2023-01-04T05:33:37;11.15;;;5.07;;
55368;SDS011;41247;49.736;8.752;2023-01-04T05:37:18;14.68;;;6.60;;
55368;SDS011;41247;49.736;8.752;2023-01-04T05:40:58;15.68;;;7.75;;
55368;SDS011;41247;49.736;8.752;2023-01-04T05:44:39;12.77;;;7.13;;
55368;SDS011;41247;49.736;8.752;2023-01-04T05:48:20;18.75;;;8.52;;
55368;SDS011;41247;49.736;8.752;2023-01-04T05:52:02;15.63;;;7.57;;
55368;SDS011;41247;49.736;8.752;2023-01-04T05:55:43;18.35;;;8.48;;
55368;SDS011;41247;49.736;8.752;2023-01-04T05:59:26;18.67;;;8.80;;
55368;SDS011;41247;49.736;8.752;2023-01-04T06:03:07;17.42;;;8.57;;
55368;SDS011;41247;49.736;8.752;2023-01-04T06:06:47;18.23;;;8.95;;
55368;SDS011;41247;49.736;8.752;2023-01-04T06:10:28;18.80;;;8.07;;
55368;SDS011;41247;49.736;8.752;2023-01-04T06:14:09;16.15;;;7.80;;
55368;SDS011;41247;49.736;8.752;2023-01-04T06:17:49;14.55;;;7.97;;
55368;SDS011;41247;49.736;8.752;2023-01-04T06:21:30;17.85;;;8.50;;
55368;SDS011;41247;49.736;8.752;2023-01-04T06:25:11;19.73;;;8.75;;
55368;SDS011;41247;49.736;8.752;2023-01-04T06:28:52;18.88;;;8.65;;
55368;SDS011;41247;49.736;8.752;2023-01-04T06:32:33;17.45;;;8.35;;
55368;SDS011;41247;49.736;8.752;2023-01-04T06:36:15;17.88;;;8.30;;
55368;SDS011;41247;49.736;8.752;2023-01-04T06:39:55;15.45;;;8.43;;
55368;SDS011;41247;49.736;8.752;2023-01-04T06:43:36;15.82;;;8.15;;
55368;SDS011;41247;49.736;8.752;2023-01-04T06:47:17;18.80;;;8.25;;
55368;SDS011;41247;49.736;8.752;2023-01-04T06:50:57;16.00;;;7.70;;
55368;SDS011;41247;49.736;8.752;2023-01-04T06:54:38;15.80;;;7.88;;
55368;SDS011;41247;49.736;8.752;2023-01-04T06:58:18;18.08;;;8.05;;
55368;SDS011;41247;49.736;8.752;2023-01-04T07:01:59;14.77;;;6.93;;
55368;SDS011;41247;49.736;8.752;2023-01-04T07:05:40;13.40;;;7.05;;
55368;SDS011;41247;49.736;8.752;2023-01-04T07:09:20;15.95;;;7.30;;
55368;SDS011;41247;49.736;8.752;2023-01-04T07:13:01;16.17;;;7.32;;
55368;SDS011;41247;49.736;8.752;2023-01-04T07:16:43;16.27;;;7.60;;
55368;SDS011;41247;49.736;8.752;2023-01-04T07:20:24;19.27;;;8.25;;
55368;SDS011;41247;49.736;8.752;2023-01-04T07:24:05;21.25;;;8.75;;
55368;SDS011;41247;49.736;8.752;2023-01-04T07:27:52;14.00;;;7.38;;
55368;SDS011;41247;49.736;8.752;2023-01-04T07:31:33;16.50;;;7.75;;
55368;SDS011;41247;49.736;8.752;2023-01-04T07:35:14;17.63;;;6.78;;
55368;SDS011;41247;49.736;8.752;2023-01-04T07:38:54;15.48;;;7.35;;
55368;SDS011;41247;49.736;8.752;2023-01-04T07:42:35;12.43;;;7.10;;
55368;SDS011;41247;49.736;8.752;2023-01-04T07:46:16;17.63;;;8.15;;
55368;SDS011;41247;49.736;8.752;2023-01-04T07:49:57;12.82;;;6.15;;
55368;SDS011;41247;49.736;8.752;2023-01-04T07:53:38;18.38;;;7.45;;
55368;SDS011;41247;49.736;8.752;2023-01-04T07:57:18;14.07;;;7.03;;
55368;SDS011;41247;49.736;8.752;2023-01-04T08:01:06;10.38;;;6.22;;
55368;SDS011;41247;49.736;8.752;2023-01-04T08:04:54;12.60;;;6.45;;
55368;SDS011;41247;49.736;8.752;2023-01-04T08:08:35;11.10;;;5.35;;
55368;SDS011;41247;49.736;8.752;2023-01-04T08:12:16;10.82;;;6.30;;
55368;SDS011;41247;49.736;8.752;2023-01-04T08:15:56;10.18;;;5.53;;
55368;SDS011;41247;49.736;8.752;2023-01-04T08:19:37;9.32;;;5.05;;
55368;SDS011;41247;49.736;8.752;2023-01-04T08:23:18;9.40;;;5.72;;
55368;SDS011;41247;49.736;8.752;2023-01-04T08:26:58;12.20;;;5.85;;
55368;SDS011;41247;49.736;8.752;2023-01-04T08:30:39;11.38;;;5.50;;
55368;SDS011;41247;49.736;8.752;2023-01-04T08:34:19;12.75;;;5.20;;
55368;SDS011;41247;49.736;8.752;2023-01-04T08:38:00;10.40;;;5.70;;
55368;SDS011;41247;49.736;8.752;2023-01-04T08:41:40;7.45;;;4.97;;
55368;SDS011;41247;49.736;8.752;2023-01-04T08:45:21;11.23;;;5.15;;
55368;SDS011;41247;49.736;8.752;2023-01-04T08:49:02;8.02;;;4.82;;
55368;SDS011;41247;49.736;8.752;2023-01-04T08:52:42;7.47;;;4.63;;
55368;SDS011;41247;49.736;8.752;2023-01-04T08:56:23;6.97;;;4.80;;
55368;SDS011;41247;49.736;8.752;2023-01-04T09:00:04;8.15;;;4.82;;
55368;SDS011;41247;49.736;8.752;2023-01-04T09:03:45;11.40;;;5.72;;
55368;SDS011;41247;49.736;8.752;2023-01-04T09:07:29;10.80;;;5.40;;
55368;SDS011;41247;49.736;8.752;2023-01-04T09:11:15;9.45;;;5.85;;
55368;SDS011;41247;49.736;8.752;2023-01-04T09:14:59;10.60;;;5.40;;
55368;SDS011;41247;49.736;8.752;2023-01-04T09:18:40;10.68;;;6.78;;
55368;SDS011;41247;49.736;8.752;2023-01-04T09:22:20;12.30;;;5.88;;
55368;SDS011;41247;49.736;8.752;2023-01-04T09:26:14;9.52;;;4.57;;
55368;SDS011;41247;49.736;8.752;2023-01-04T09:29:58;9.30;;;4.72;;
55368;SDS011;41247;49.736;8.752;2023-01-04T09:33:39;8.73;;;4.40;;
55368;SDS011;41247;49.736;8.752;2023-01-04T09:37:19;8.63;;;4.35;;
55368;SDS011;41247;49.736;8.752;2023-01-04T09:41:09;10.15;;;3.80;;
55368;SDS011;41247;49.736;8.752;2023-01-04T09:44:57;10.85;;;3.90;;
55368;SDS011;41247;49.736;8.752;2023-01-04T09:49:00;7.28;;;3.92;;
55368;SDS011;41247;49.736;8.752;2023-01-04T09:56:55;6.13;;;3.55;;
55368;SDS011;41247;49.736;8.752;2023-01-04T10:00:42;5.68;;;3.20;;
55368;SDS011;41247;49.736;8.752;2023-01-04T10:04:46;7.82;;;3.42;;
55368;SDS011;41247;49.736;8.752;2023-01-04T10:08:29;7.00;;;3.55;;
55368;SDS011;41247;49.736;8.752;2023-01-04T10:16:50;9.90;;;3.13;;
55368;SDS011;41247;49.736;8.752;2023-01-04T10:20:53;4.57;;;3.28;;
55368;SDS011;41247;49.736;8.752;2023-01-04T10:24:56;7.78;;;2.90;;
55368;SDS011;41247;49.736;8.752;2023-01-04T10:29:09;5.63;;;3.40;;
55368;SDS011;41247;49.736;8.752;2023-01-04T10:36:57;4.97;;;3.10;;
55368;SDS011;41247;49.736;8.752;2023-01-04T10:40:46;6.03;;;3.10;;
55368;SDS011;41247;49.736;8.752;2023-01-04T10:44:32;8.13;;;3.25;;
55368;SDS011;41247;49.736;8.752;2023-01-04T10:48:34;6.45;;;3.25;;
55368;SDS011;41247;49.736;8.752;2023-01-04T11:00:22;6.88;;;3.00;;
55368;SDS011;41247;49.736;8.752;2023-01-04T11:12:02;7.47;;;2.50;;
55368;SDS011;41247;49.736;8.752;2023-01-04T11:15:45;3.47;;;2.50;;
55368;SDS011;41247;49.736;8.752;2023-01-04T11:19:26;4.22;;;2.80;;
55368;SDS011;41247;49.736;8.752;2023-01-04T11:23:10;3.78;;;2.20;;
55368;SDS011;41247;49.736;8.752;2023-01-04T11:26:55;4.47;;;1.90;;
55368;SDS011;41247;49.736;8.752;2023-01-04T11:30:41;5.97;;;2.20;;
55368;SDS011;41247;49.736;8.752;2023-01-04T11:34:44;2.28;;;1.75;;
55368;SDS011;41247;49.736;8.752;2023-01-04T11:38:30;3.78;;;1.50;;
55368;SDS011;41247;49.736;8.752;2023-01-04T11:42:13;4.63;;;1.90;;
55368;SDS011;41247;49.736;8.752;2023-01-04T11:46:02;2.85;;;1.45;;
55368;SDS011;41247;49.736;8.752;2023-01-04T11:49:44;4.97;;;1.70;;
55368;SDS011;41247;49.736;8.752;2023-01-04T11:57:17;4.07;;;1.67;;
55368;SDS011;41247;49.736;8.752;2023-01-04T12:00:59;5.32;;;1.85;;
55368;SDS011;41247;49.736;8.752;2023-01-04T12:04:40;5.53;;;2.22;;
55368;SDS011;41247;49.736;8.752;2023-01-04T12:08:28;3.25;;;1.65;;
55368;SDS011;41247;49.736;8.752;2023-01-04T12:12:12;4.75;;;2.05;;
55368;SDS011;41247;49.736;8.752;2023-01-04T12:16:13;3.78;;;1.70;;
55368;SDS011;41247;49.736;8.752;2023-01-04T12:20:05;4.97;;;1.60;;
55368;SDS011;41247;49.736;8.752;2023-01-04T12:23:57;4.50;;;1.58;;
55368;SDS011;41247;49.736;8.752;2023-01-04T12:27:38;2.45;;;1.73;;
55368;SDS011;41247;49.736;8.752;2023-01-04T12:31:30;4.15;;;1.80;;
55368;SDS011;41247;49.736;8.752;2023-01-04T12:39:44;3.80;;;1.73;;
55368;SDS011;41247;49.736;8.752;2023-01-04T12:43:25;2.88;;;1.60;;
55368;SDS011;41247;49.736;8.752;2023-01-04T12:51:15;3.45;;;1.50;;
55368;SDS011;41247;49.736;8.752;2023-01-04T12:54:58;4.55;;;1.67;;
55368;SDS011;41247;49.736;8.752;2023-01-04T12:58:41;3.83;;;1.92;;
55368;SDS011;41247;49.736;8.752;2023-01-04T13:02:47;4.47;;;1.60;;
55368;SDS011;41247;49.736;8.752;2023-01-04T13:06:56;3.80;;;1.60;;
55368;SDS011;41247;49.736;8.752;2023-01-04T13:10:55;3.83;;;1.88;;
55368;SDS011;41247;49.736;8.752;2023-01-04T13:14:42;3.13;;;1.92;;
55368;SDS011;41247;49.736;8.752;2023-01-04T13:18:31;3.67;;;1.95;;
55368;SDS011;41247;49.736;8.752;2023-01-04T13:22:27;2.67;;;1.90;;
55368;SDS011;41247;49.736;8.752;2023-01-04T13:26:28;3.67;;;1.90;;
55368;SDS011;41247;49.736;8.752;2023-01-04T13:30:27;2.97;;;1.98;;
55368;SDS011;41247;49.736;8.752;2023-01-04T13:34:20;3.00;;;1.83;;
55368;SDS011;41247;49.736;8.752;2023-01-04T13:38:15;5.15;;;2.25;;
55368;SDS011;41247;49.736;8.752;2023-01-04T13:41:56;3.67;;;2.20;;
55368;SDS011;41247;49.736;8.752;2023-01-04T13:46:23;5.22;;;1.80;;
55368;SDS011;41247;49.736;8.752;2023-01-04T13:49:54;2.92;;;1.98;;
55368;SDS011;41247;49.736;8.752;2023-01-04T13:53:35;5.50;;;2.10;;
55368;SDS011;41247;49.736;8.752;2023-01-04T13:57:16;5.72;;;1.92;;
55368;SDS011;41247;49.736;8.752;2023-01-04T14:01:00;4.85;;;2.00;;
55368;SDS011;41247;49.736;8.752;2023-01-04T14:04:56;5.32;;;2.10;;
55368;SDS011;41247;49.736;8.752;2023-01-04T14:08:38;3.60;;;2.30;;
55368;SDS011;41247;49.736;8.752;2023-01-04T14:12:29;5.28;;;2.05;;
55368;SDS011;41247;49.736;8.752;2023-01-04T14:16:12;4.78;;;2.13;;
55368;SDS011;41247;49.736;8.752;2023-01-04T14:23:49;3.63;;;2.17;;
55368;SDS011;41247;49.736;8.752;2023-01-04T14:31:21;2.42;;;1.65;;
55368;SDS011;41247;49.736;8.752;2023-01-04T14:35:10;2.45;;;1.98;;
55368;SDS011;41247;49.736;8.752;2023-01-04T14:38:54;3.88;;;2.33;;
55368;SDS011;41247;49.736;8.752;2023-01-04T14:42:50;3.13;;;1.98;;
55368;SDS011;41247;49.736;8.752;2023-01-04T14:46:31;4.95;;;2.10;;
55368;SDS011;41247;49.736;8.752;2023-01-04T14:50:12;6.00;;;2.00;;
55368;SDS011;41247;49.736;8.752;2023-01-04T14:53:54;4.68;;;1.98;;
55368;SDS011;41247;49.736;8.752;2023-01-04T14:57:34;3.88;;;1.92;;
55368;SDS011;41247;49.736;8.752;2023-01-04T15:01:15;3.40;;;2.00;;
55368;SDS011;41247;49.736;8.752;2023-01-04T15:04:56;2.65;;;1.98;;
55368;SDS011;41247;49.736;8.752;2023-01-04T15:08:36;4.70;;;2.40;;
55368;SDS011;41247;49.736;8.752;2023-01-04T15:12:17;3.28;;;2.20;;
55368;SDS011;41247;49.736;8.752;2023-01-04T15:15:57;7.32;;;2.65;;
55368;SDS011;41247;49.736;8.752;2023-01-04T15:19:38;3.00;;;2.00;;
55368;SDS011;41247;49.736;8.752;2023-01-04T15:23:19;3.22;;;1.80;;
55368;SDS011;41247;49.736;8.752;2023-01-04T15:26:59;3.30;;;2.00;;
55368;SDS011;41247;49.736;8.752;2023-01-04T15:30:40;2.90;;;2.13;;
55368;SDS011;41247;49.736;8.752;2023-01-04T15:34:22;6.63;;;3.20;;
55368;SDS011;41247;49.736;8.752;2023-01-04T15:38:03;2.58;;;1.90;;
55368;SDS011;41247;49.736;8.752;2023-01-04T15:41:44;3.50;;;1.80;;
55368;SDS011;41247;49.736;8.752;2023-01-04T15:45:25;2.95;;;1.58;;
55368;SDS011;41247;49.736;8.752;2023-01-04T15:49:10;2.03;;;1.80;;
55368;SDS011;41247;49.736;8.752;2023-01-04T15:52:50;1.60;;;1.33;;
55368;SDS011;41247;49.736;8.752;2023-01-04T15:56:31;2.85;;;1.77;;
55368;SDS011;41247;49.736;8.752;2023-01-04T16:00:11;2.80;;;1.75;;
55368;SDS011;41247;49.736;8.752;2023-01-04T16:03:53;4.63;;;1.67;;
55368;SDS011;41247;49.736;8.752;2023-01-04T16:07:33;1.60;;;1.40;;
55368;SDS011;41247;49.736;8.752;2023-01-04T16:11:15;2.60;;;1.50;;
55368;SDS011;41247;49.736;8.752;2023-01-04T16:15:02;7.85;;;2.00;;
55368;SDS011;41247;49.736;8.752;2023-01-04T16:18:46;3.28;;;1.88;;
55368;SDS011;41247;49.736;8.752;2023-01-04T16:22:29;2.58;;;1.40;;
55368;SDS011;41247;49.736;8.752;2023-01-04T16:26:13;3.33;;;1.85;;
55368;SDS011;41247;49.736;8.752;2023-01-04T16:29:54;4.55;;;1.73;;
55368;SDS011;41247;49.736;8.752;2023-01-04T16:33:34;3.70;;;1.50;;
55368;SDS011;41247;49.736;8.752;2023-01-04T16:37:15;3.00;;;1.20;;
55368;SDS011;41247;49.736;8.752;2023-01-04T16:40:57;1.33;;;1.10;;
55368;SDS011;41247;49.736;8.752;2023-01-04T16:44:40;2.67;;;1.37;;
55368;SDS011;41247;49.736;8.752;2023-01-04T16:48:20;4.22;;;1.33;;
55368;SDS011;41247;49.736;8.752;2023-01-04T16:52:01;3.13;;;1.30;;
55368;SDS011;41247;49.736;8.752;2023-01-04T16:55:41;2.58;;;1.42;;
55368;SDS011;41247;49.736;8.752;2023-01-04T16:59:22;3.80;;;1.27;;
55368;SDS011;41247;49.736;8.752;2023-01-04T17:03:02;1.75;;;1.10;;
55368;SDS011;41247;49.736;8.752;2023-01-04T17:06:44;4.43;;;1.27;;
55368;SDS011;41247;49.736;8.752;2023-01-04T17:10:25;3.22;;;1.20;;
55368;SDS011;41247;49.736;8.752;2023-01-04T17:14:07;2.42;;;1.15;;
55368;SDS011;41247;49.736;8.752;2023-01-04T17:17:51;2.53;;;1.23;;
55368;SDS011;41247;49.736;8.752;2023-01-04T17:21:32;1.92;;;1.10;;
55368;SDS011;41247;49.736;8.752;2023-01-04T17:25:13;1.70;;;1.23;;
55368;SDS011;41247;49.736;8.752;2023-01-04T17:28:54;4.40;;;1.40;;
55368;SDS011;41247;49.736;8.752;2023-01-04T17:32:36;1.55;;;1.45;;
55368;SDS011;41247;49.736;8.752;2023-01-04T17:36:17;2.78;;;1.38;;
55368;SDS011;41247;49.736;8.752;2023-01-04T17:39:59;2.00;;;1.42;;
55368;SDS011;41247;49.736;8.752;2023-01-04T17:43:40;3.20;;;1.70;;
55368;SDS011;41247;49.736;8.752;2023-01-04T17:47:23;2.20;;;1.70;;
55368;SDS011;41247;49.736;8.752;2023-01-04T17:51:07;2.33;;;1.50;;
55368;SDS011;41247;49.736;8.752;2023-01-04T17:54:51;2.60;;;1.70;;
55368;SDS011;41247;49.736;8.752;2023-01-04T17:58:31;1.70;;;1.60;;
55368;SDS011;41247;49.736;8.752;2023-01-04T18:02:12;2.10;;;1.60;;
55368;SDS011;41247;49.736;8.752;2023-01-04T18:05:53;2.58;;;1.63;;
55368;SDS011;41247;49.736;8.752;2023-01-04T18:09:34;2.45;;;1.67;;
55368;SDS011;41247;49.736;8.752;2023-01-04T18:13:15;1.83;;;1.55;;
55368;SDS011;41247;49.736;8.752;2023-01-04T18:16:55;2.17;;;1.67;;
55368;SDS011;41247;49.736;8.752;2023-01-04T18:20:36;2.25;;;1.85;;
55368;SDS011;41247;49.736;8.752;2023-01-04T18:24:17;2.55;;;1.50;;
55368;SDS011;41247;49.736;8.752;2023-01-04T18:27:57;2.28;;;1.48;;
55368;SDS011;41247;49.736;8.752;2023-01-04T18:31:38;3.03;;;2.00;;
55368;SDS011;41247;49.736;8.752;2023-01-04T18:35:19;5.70;;;2.10;;
55368;SDS011;41247;49.736;8.752;2023-01-04T18:38:59;2.80;;;1.45;;
55368;SDS011;41247;49.736;8.752;2023-01-04T18:42:43;2.25;;;1.67;;
55368;SDS011;41247;49.736;8.752;2023-01-04T18:46:28;2.05;;;1.60;;
55368;SDS011;41247;49.736;8.752;2023-01-04T18:50:09;2.88;;;1.60;;
55368;SDS011;41247;49.736;8.752;2023-01-04T18:53:49;3.05;;;1.40;;
55368;SDS011;41247;49.736;8.752;2023-01-04T18:57:31;1.75;;;1.40;;
55368;SDS011;41247;49.736;8.752;2023-01-04T19:01:12;2.72;;;1.52;;
55368;SDS011;41247;49.736;8.752;2023-01-04T19:04:54;2.13;;;1.70;;
55368;SDS011;41247;49.736;8.752;2023-01-04T19:08:34;3.20;;;1.83;;
55368;SDS011;41247;49.736;8.752;2023-01-04T19:12:15;4.43;;;2.00;;
55368;SDS011;41247;49.736;8.752;2023-01-04T19:15:56;4.82;;;1.95;;
55368;SDS011;41247;49.736;8.752;2023-01-04T19:19:37;2.80;;;2.13;;
55368;SDS011;41247;49.736;8.752;2023-01-04T19:23:18;2.70;;;2.47;;
55368;SDS011;41247;49.736;8.752;2023-01-04T19:26:59;2.80;;;2.50;;
55368;SDS011;41247;49.736;8.752;2023-01-04T19:30:40;2.50;;;2.30;;
55368;SDS011;41247;49.736;8.752;2023-01-04T19:34:21;2.53;;;2.33;;
55368;SDS011;41247;49.736;8.752;2023-01-04T19:38:02;2.97;;;1.98;;
55368;SDS011;41247;49.736;8.752;2023-01-04T19:41:42;5.85;;;2.22;;
55368;SDS011;41247;49.736;8.752;2023-01-04T19:45:23;4.35;;;1.90;;
55368;SDS011;41247;49.736;8.752;2023-01-04T19:49:04;2.03;;;1.80;;
55368;SDS011;41247;49.736;8.752;2023-01-04T19:52:46;2.88;;;2.05;;
55368;SDS011;41247;49.736;8.752;2023-01-04T19:56:26;2.78;;;2.15;;
55368;SDS011;41247;49.736;8.752;2023-01-04T20:00:07;3.60;;;2.35;;
55368;SDS011;41247;49.736;8.752;2023-01-04T20:03:49;2.95;;;1.90;;
55368;SDS011;41247;49.736;8.752;2023-01-04T20:07:30;3.53;;;2.45;;
55368;SDS011;41247;49.736;8.752;2023-01-04T20:11:12;4.22;;;2.80;;
55368;SDS011;41247;49.736;8.752;2023-01-04T20:14:53;3.10;;;2.47;;
55368;SDS011;41247;49.736;8.752;2023-01-04T20:18:34;2.30;;;2.10;;
55368;SDS011;41247;49.736;8.752;2023-01-04T20:22:15;2.33;;;1.80;;
55368;SDS011;41247;49.736;8.752;2023-01-04T20:25:56;4.10;;;1.80;;
55368;SDS011;41247;49.736;8.752;2023-01-04T20:29:36;1.70;;;1.60;;
55368;SDS011;41247;49.736;8.752;2023-01-04T20:33:17;2.50;;;2.10;;
55368;SDS011;41247;49.736;8.752;2023-01-04T20:36:57;3.58;;;2.70;;
55368;SDS011;41247;49.736;8.752;2023-01-04T20:40:38;3.55;;;2.55;;
55368;SDS011;41247;49.736;8.752;2023-01-04T20:44:19;4.55;;;3.22;;
55368;SDS011;41247;49.736;8.752;2023-01-04T20:48:00;7.00;;;6.15;;
55368;SDS011;41247;49.736;8.752;2023-01-04T20:51:40;6.22;;;4.53;;
55368;SDS011;41247;49.736;8.752;2023-01-04T20:55:21;6.43;;;4.55;;
55368;SDS011;41247;49.736;8.752;2023-01-04T20:59:02;5.57;;;4.10;;
55368;SDS011;41247;49.736;8.752;2023-01-04T21:02:43;4.63;;;3.45;;
55368;SDS011;41247;49.736;8.752;2023-01-04T21:06:24;5.45;;;3.47;;
55368;SDS011;41247;49.736;8.752;2023-01-04T21:10:04;5.20;;;4.18;;
55368;SDS011;41247;49.736;8.752;2023-01-04T21:13:45;6.97;;;4.88;;
55368;SDS011;41247;49.736;8.752;2023-01-04T21:17:27;6.88;;;5.80;;
55368;SDS011;41247;49.736;8.752;2023-01-04T21:21:11;9.65;;;6.15;;
55368;SDS011;41247;49.736;8.752;2023-01-04T21:24:54;6.68;;;6.05;;
55368;SDS011;41247;49.736;8.752;2023-01-04T21:28:35;6.53;;;5.07;;
55368;SDS011;41247;49.736;8.752;2023-01-04T21:32:16;6.70;;;4.88;;
55368;SDS011;41247;49.736;8.752;2023-01-04T21:35:56;4.28;;;3.88;;
55368;SDS011;41247;49.736;8.752;2023-01-04T21:39:37;4.80;;;3.72;;
55368;SDS011;41247;49.736;8.752;2023-01-04T21:43:17;5.90;;;3.38;;
55368;SDS011;41247;49.736;8.752;2023-01-04T21:46:58;4.78;;;3.80;;
55368;SDS011;41247;49.736;8.752;2023-01-04T21:50:38;10.02;;;3.40;;
55368;SDS011;41247;49.736;8.752;2023-01-04T21:54:19;5.55;;;3.47;;
55368;SDS011;41247;49.736;8.752;2023-01-04T21:58:01;4.15;;;3.70;;
55368;SDS011;41247;49.736;8.752;2023-01-04T22:01:42;9.32;;;4.15;;
55368;SDS011;41247;49.736;8.752;2023-01-04T22:05:23;7.05;;;4.25;;
55368;SDS011;41247;49.736;8.752;2023-01-04T22:09:04;7.03;;;4.57;;
55368;SDS011;41247;49.736;8.752;2023-01-04T22:12:45;8.48;;;4.07;;
55368;SDS011;41247;49.736;8.752;2023-01-04T22:16:26;6.55;;;3.97;;
55368;SDS011;41247;49.736;8.752;2023-01-04T22:20:07;5.57;;;3.70;;
55368;SDS011;41247;49.736;8.752;2023-01-04T22:23:48;5.50;;;3.85;;
55368;SDS011;41247;49.736;8.752;2023-01-04T22:27:29;8.48;;;3.85;;
55368;SDS011;41247;49.736;8.752;2023-01-04T22:31:11;10.23;;;4.50;;
55368;SDS011;41247;49.736;8.752;2023-01-04T22:34:53;7.90;;;4.70;;
55368;SDS011;41247;49.736;8.752;2023-01-04T22:38:34;7.85;;;4.85;;
55368;SDS011;41247;49.736;8.752;2023-01-04T22:42:16;6.93;;;4.90;;
55368;SDS011;41247;49.736;8.752;2023-01-04T22:46:00;7.28;;;4.80;;
55368;SDS011;41247;49.736;8.752;2023-01-04T22:49:42;6.78;;;4.20;;
55368;SDS011;41247;49.736;8.752;2023-01-04T22:53:23;6.72;;;4.30;;
55368;SDS011;41247;49.736;8.752;2023-01-04T22:57:04;9.15;;;4.95;;
55368;SDS011;41247;49.736;8.752;2023-01-04T23:00:44;10.27;;;4.88;;
55368;SDS011;41247;49.736;8.752;2023-01-04T23:04:25;11.90;;;5.95;;
55368;SDS011;41247;49.736;8.752;2023-01-04T23:08:06;7.90;;;6.00;;
55368;SDS011;41247;49.736;8.752;2023-01-04T23:11:46;12.40;;;6.22;;
55368;SDS011;41247;49.736;8.752;2023-01-04T23:15:27;8.73;;;6.80;;
55368;SDS011;41247;49.736;8.752;2023-01-04T23:19:08;7.88;;;6.25;;
55368;SDS011;41247;49.736;8.752;2023-01-04T23:22:51;11.13;;;6.07;;